Cercs-Sant Jordi





Hora UTC 16:20
Temperatura 5.5 ºC
Humedad 85.0 %
Presión 1011.6 hPa
Pluja 0.0 mm
Velocidad viento 1.0 km/h
Dirección viento SW
Radiación solar 3.9 W/m²

Datos diarios 2021-12-04



Hora UTC (invierno +1h; verano +2h)
Temperatura (ºC) Humedad (%) Presión (hPa) Velocidad viento (km/h) Precipitación (mm) Radiación solar (W/m²)
Hora UTC Aire Humedad Presión Vel. Dir. Vel. Max Dir. Intent. máx 5 min. Rad. Sol.
00:05 2.0 85.0 1016.8 0.6 SW 0.6 WSW 0.0 0.1
00:10 2.1 84.6 1016.8 0.3 WNW 1.1 WSW 0.0 0.1
00:15 2.2 83.7 1016.7 0.8 NNE 1.4 NNE 0.0 0.1
00:20 2.4 82.0 1016.7 1.2 N 1.8 NW 0.0 0.1
00:25 2.5 80.9 1016.7 0.2 N 1.1 N 0.0 0.1
00:30 2.4 81.5 1016.6 0.3 SE 1.4 SE 0.0 0.1
00:35 2.4 81.9 1016.5 0.7 SSW 1.4 S 0.0 0.1
00:40 2.3 82.8 1016.3 1.0 SW 1.4 W 0.0 0.1
00:45 2.3 82.9 1016.3 1.1 WSW 1.8 SSW 0.0 0.1
00:50 2.6 82.1 1016.1 0.5 NNE 1.4 N 0.0 0.1
00:55 3.0 80.0 1016.0 0.4 S 1.4 SE 0.0 0.1
01:00 2.7 80.2 1016.0 0.1 ESE 1.4 ESE 0.0 0.1
01:05 2.5 81.9 1016.0 0.3 NNE 1.4 ENE 0.0 0.1
01:10 2.1 82.7 1016.0 0.4 SW 1.4 NE 0.0 0.1
01:15 1.9 84.5 1016.0 1.3 SW 1.4 SW 0.0 0.1
01:20 1.7 85.6 1016.0 1.3 WSW 1.8 WSW 0.0 0.1
01:25 1.8 85.8 1015.9 0.9 NE 1.4 WSW 0.0 0.1
01:30 1.8 85.1 1016.0 0.2 N 1.4 WNW 0.0 0.1
01:35 1.9 84.9 1016.1 0.8 NNE 1.4 NE 0.0 0.1
01:40 1.9 84.9 1016.0 0.5 NNE 1.4 NE 0.0 0.1
01:45 1.8 84.9 1016.0 0.3 NNE 1.8 NE 0.0 0.1
01:50 1.7 85.6 1015.9 0.2 NE 1.4 NNE 0.0 0.1
01:55 1.8 85.3 1015.7 0.4 N 1.4 NNE 0.0 0.1
02:00 1.7 84.6 1015.7 0.7 SSE 1.4 SSE 0.0 0.1
02:05 1.4 86.4 1015.6 0.9 NW 1.4 WNW 0.0 0.1
02:10 1.7 86.5 1015.5 0.2 NE 1.4 NE 0.0 0.1
02:15 1.7 85.4 1015.4 1.1 SSW 1.4 SSW 0.0 0.1
02:20 1.6 86.8 1015.5 1.1 S 1.4 SSW 0.0 0.1
02:25 1.5 87.0 1015.6 0.8 SW 1.4 WSW 0.0 0.1
02:30 1.2 87.6 1015.6 0.6 SW 1.4 SSW 0.0 0.1
02:35 1.0 88.3 1015.7 0.8 SW 1.4 SW 0.0 0.1
02:40 1.0 88.7 1015.7 0.8 WNW 1.4 WNW 0.0 0.1
02:45 1.1 88.5 1015.7 0.9 WNW 1.4 WNW 0.0 0.1
02:50 1.2 88.1 1015.7 0.8 NNW 1.4 WNW 0.0 0.1
02:55 1.3 87.1 1015.7 0.7 SSW 1.4 SW 0.0 0.1
03:00 1.3 87.8 1015.6 0.0 N 1.1 N 0.0 0.1
03:05 1.2 87.2 1015.5 0.1 E 1.1 ESE 0.0 0.1
03:10 1.2 87.6 1015.3 0.7 NE 1.4 NE 0.0 0.1
03:15 1.2 87.1 1015.2 0.8 NW 1.4 NNE 0.0 0.1
03:20 1.2 87.5 1015.1 0.1 WSW 1.1 WNW 0.0 0.1
03:25 1.1 87.7 1015.0 0.5 W 1.4 SW 0.0 0.1
03:30 1.2 87.2 1015.0 0.4 ENE 1.1 NE 0.0 0.1
03:35 1.1 87.6 1015.0 0.1 NNE 1.1 NE 0.0 0.1
03:40 1.1 87.7 1014.9 0.3 NNE 1.1 NE 0.0 0.1
03:45 1.2 87.6 1014.8 0.2 S 1.1 NNE 0.0 0.1
03:50 1.0 87.6 1014.8 0.7 WSW 1.8 WSW 0.0 0.1
03:55 1.1 88.2 1014.7 0.4 NNW 2.1 NE 0.0 0.1
04:00 1.2 87.9 1014.6 1.1 NNE 2.5 NE 0.0 0.1
04:05 1.7 86.6 1014.5 1.5 W 2.1 WNW 0.0 0.1
04:10 2.0 85.7 1014.6 1.0 WNW 1.8 WNW 0.0 0.1
04:15 2.1 84.8 1014.6 0.8 SSW 1.8 WSW 0.0 0.1
04:20 1.6 86.0 1014.5 1.2 SW 1.4 SW 0.0 0.1
04:25 1.0 87.8 1014.7 1.2 SW 1.4 SW 0.0 0.1
04:30 0.8 89.1 1014.8 0.7 W 1.4 S 0.0 0.1
04:35 0.6 89.9 1014.7 0.7 SW 1.4 SW 0.0 0.1
04:40 0.5 90.4 1014.7 0.6 SW 1.4 SW 0.0 0.1
04:45 0.4 90.7 1014.6 0.3 NE 1.4 NE 0.0 0.1
04:50 0.5 90.7 1014.5 0.3 NNE 1.4 N 0.0 0.1
04:55 0.4 90.4 1014.6 0.0 NNE 0.0 NNE 0.0 0.1
05:00 0.3 90.8 1014.7 1.0 W 1.4 WNW 0.0 0.1
05:05 0.4 91.2 1014.8 0.5 SW 1.4 WSW 0.0 0.1
05:10 0.2 90.7 1014.9 0.1 ENE 1.1 SW 0.0 0.1
05:15 0.2 91.4 1014.9 0.6 WNW 1.4 WNW 0.0 0.1
05:20 0.2 92.0 1014.9 0.0 W 1.1 WSW 0.0 0.1
05:25 0.3 92.3 1015.0 0.5 SSW 1.4 SSW 0.0 0.1
05:30 0.1 91.8 1014.9 0.5 WNW 1.8 WNW 0.0 0.1
05:35 0.1 92.5 1015.0 0.7 SW 1.8 W 0.0 0.1
05:40 0.2 92.4 1015.0 0.2 SSE 1.4 SSE 0.0 0.1
05:45 0.1 92.2 1015.1 0.0 W 1.1 W 0.0 0.1
05:50 0.0 92.3 1015.0 0.7 WNW 1.4 WNW 0.0 0.1
05:55 -0.1 93.0 1015.0 0.6 SW 1.4 SW 0.0 0.1
06:00 -0.1 93.2 1014.9 0.2 WNW 1.4 WNW 0.0 0.1
06:05 -0.1 93.7 1014.8 0.3 NNE 1.4 NNE 0.0 0.1
06:10 -0.1 93.5 1014.8 1.0 WSW 1.8 SSW 0.0 0.1
06:15 0.0 93.9 1014.8 0.7 NNW 1.4 N 0.0 0.1
06:20 0.0 93.8 1014.8 0.6 NE 2.1 ENE 0.0 0.1
06:25 0.1 94.3 1014.7 1.1 N 1.8 NNE 0.0 0.1
06:30 0.1 94.7 1014.7 0.6 N 1.4 NNE 0.0 0.1
06:35 0.0 94.4 1014.8 0.2 NNE 1.1 NNE 0.0 0.1
06:40 0.0 94.0 1014.7 0.1 SSE 1.1 SE 0.0 0.2
06:45 -0.2 94.1 1014.8 0.2 E 1.4 E 0.0 0.5
06:50 -0.3 94.3 1014.8 0.2 SW 1.1 SW 0.0 1.0
06:55 -0.4 94.6 1014.8 0.9 SW 1.4 WSW 0.0 1.8
07:00 -0.4 94.8 1014.9 0.9 WSW 1.8 WSW 0.0 2.9
07:05 -0.4 95.2 1014.8 0.4 NW 1.1 NW 0.0 4.1
07:10 -0.4 95.0 1014.8 0.1 N 1.4 N 0.0 5.7
07:15 -0.5 94.8 1014.8 0.3 NNE 1.1 NE 0.0 7.2
07:20 -0.3 95.2 1014.7 0.6 NE 1.4 WNW 0.0 9.7
07:25 -0.2 95.1 1014.7 0.6 NNW 1.4 WNW 0.0 12.5
07:30 -0.1 95.2 1014.7 0.7 NNE 1.8 NE 0.0 14.9
07:35 0.0 94.5 1014.7 0.6 ENE 1.4 NE 0.0 18.4
07:40 -0.1 94.0 1014.7 0.5 SW 1.4 SW 0.0 21.0
07:45 0.0 94.7 1014.6 0.9 WSW 1.4 WNW 0.0 22.9
07:50 0.3 95.0 1014.6 0.3 NE 1.4 ENE 0.0 24.6
07:55 0.4 94.1 1014.6 0.6 NE 1.4 ENE 0.0 26.3
08:00 0.5 92.9 1014.5 0.5 NNE 1.4 NE 0.0 27.5
08:05 0.6 92.5 1014.4 0.3 SSE 1.4 S 0.0 28.9
08:10 0.8 92.0 1014.3 0.9 ENE 1.8 ENE 0.0 30.8
08:15 0.7 91.0 1014.4 0.6 NNE 1.8 NNE 0.0 33.0
08:20 0.8 91.1 1014.4 0.0 NNE 0.0 N 0.0 35.1
08:25 0.9 91.0 1014.4 0.2 ENE 1.4 ENE 0.0 91.8
08:30 1.0 90.6 1014.3 0.0 ESE 1.1 ESE 0.0 87.6
08:35 1.1 90.5 1014.2 0.0 SE 1.1 ESE 0.0 36.9
08:40 1.4 90.4 1014.1 1.0 S 1.8 S 0.0 44.8
08:45 1.6 89.2 1014.1 0.3 SSW 1.1 S 0.0 188.2
08:50 2.0 88.5 1014.1 0.6 ESE 1.4 SE 0.0 210.0
08:55 2.4 86.0 1014.0 0.2 SSE 1.1 SSE 0.0 217.0
09:00 3.1 83.5 1014.0 0.3 SSE 1.4 SSE 0.0 227.7
09:05 3.4 82.0 1014.0 0.4 E 1.4 E 0.0 237.5
09:10 3.7 82.3 1014.1 0.3 SE 1.4 ENE 0.0 250.1
09:15 4.1 81.0 1014.2 0.1 E 1.1 SE 0.0 256.3
09:20 4.2 80.6 1014.1 0.2 ESE 1.4 ESE 0.0 265.3
09:25 4.7 78.8 1014.0 1.0 S 1.4 S 0.0 272.6
09:30 5.0 78.6 1013.9 1.2 SE 1.4 SSE 0.0 282.4
09:35 4.9 78.2 1013.8 0.7 ESE 1.4 SE 0.0 292.4
09:40 4.8 79.8 1013.7 0.6 E 1.4 E 0.0 298.8
09:45 5.1 77.2 1013.7 0.7 S 1.8 SSW 0.0 305.9
09:50 5.7 76.1 1013.6 0.8 SSE 1.4 SE 0.0 312.7
09:55 5.9 75.2 1013.5 1.1 S 1.8 SSW 0.0 319.1
10:00 6.3 74.2 1013.5 0.8 S 1.8 S 0.0 325.4
10:05 6.1 75.0 1013.5 0.2 ESE 1.4 ENE 0.0 331.3
10:10 6.3 76.2 1013.6 0.8 SE 1.4 SE 0.0 335.8
10:15 6.5 75.9 1013.5 0.6 SE 1.4 ENE 0.0 341.5
10:20 6.9 74.6 1013.4 0.9 S 2.1 SSE 0.0 348.7
10:25 7.0 73.9 1013.4 0.9 ESE 1.8 E 0.0 352.1
10:30 7.0 74.3 1013.4 1.0 SSW 1.8 WNW 0.0 358.2
10:35 7.0 74.0 1013.4 0.7 E 1.8 ENE 0.0 362.5
10:40 7.0 74.4 1013.4 0.6 WSW 1.4 W 0.0 386.8
10:45 7.5 73.0 1013.2 0.3 W 1.4 SW 0.0 447.4
10:50 8.0 71.4 1013.0 1.2 SSE 1.8 SE 0.0 428.3
10:55 7.9 71.6 1013.0 1.0 S 1.8 SW 0.0 304.7
11:00 7.8 70.8 1013.0 0.7 SSE 1.8 S 0.0 306.4
11:05 7.9 70.8 1012.9 0.6 SSW 1.8 SW 0.0 366.1
11:10 8.1 70.2 1012.9 0.6 SSE 1.4 S 0.0 293.2
11:15 7.9 72.8 1012.8 0.6 NNE 1.8 NE 0.0 307.0
11:20 8.0 73.2 1012.9 0.3 WNW 1.4 NE 0.0 241.9
11:25 8.0 71.5 1012.9 0.5 SW 1.4 SSW 0.0 192.8
11:30 7.8 71.5 1012.8 0.8 S 1.8 S 0.0 167.8
11:35 7.7 72.4 1012.5 0.6 SSW 1.4 S 0.0 149.5
11:40 7.6 72.9 1012.3 0.5 SSW 1.4 SSW 0.0 133.3
11:45 7.5 74.1 1012.1 0.3 SE 1.4 SE 0.0 135.4
11:50 7.5 74.5 1012.1 0.2 SE 1.1 SE 0.0 128.7
11:55 7.6 74.4 1011.9 0.1 SE 1.1 SSE 0.0 126.8
12:00 7.4 75.1 1011.8 0.2 E 1.4 ENE 0.0 120.8
12:05 7.3 75.7 1011.7 0.3 E 1.1 ESE 0.0 136.7
12:10 7.4 76.4 1011.8 0.4 SSE 1.4 SSE 0.0 149.9
12:15 7.5 76.2 1012.0 1.2 SSW 1.8 S 0.0 165.9
12:20 7.6 76.4 1012.0 1.0 S 1.4 SW 0.0 164.3
12:25 7.8 75.2 1012.0 0.5 SE 1.4 SSW 0.0 135.7
12:30 7.8 75.3 1012.0 0.3 ESE 1.4 SSE 0.0 120.4
12:35 7.7 75.1 1011.9 0.0 ENE 1.1 ENE 0.0 103.6
12:40 7.6 75.4 1011.9 0.5 ENE 1.4 NNE 0.0 104.4
12:45 7.6 76.1 1011.8 0.2 E 1.1 NE 0.0 123.6
12:50 7.8 76.0 1011.7 0.4 SE 1.8 SSE 0.0 117.7
12:55 7.8 75.3 1011.7 1.2 S 2.1 SSE 0.0 95.1
13:00 7.8 75.7 1011.7 0.8 S 1.4 SSW 0.0 97.9
13:05 7.8 75.6 1011.6 0.2 SSW 1.1 SW 0.0 101.3
13:10 7.8 75.5 1011.6 0.2 SE 1.1 S 0.0 108.8
13:15 7.9 75.8 1011.7 0.5 SE 1.4 SSE 0.0 120.7
13:20 8.0 75.3 1011.8 0.5 SE 1.4 SE 0.0 123.6
13:25 8.1 75.2 1011.9 0.9 ESE 1.8 ESE 0.0 117.2
13:30 8.0 75.0 1011.8 0.5 ESE 1.4 NE 0.0 114.5
13:35 7.9 75.6 1011.8 0.7 ESE 1.4 E 0.0 122.2
13:40 7.9 75.9 1011.7 0.7 ESE 1.8 E 0.0 134.9
13:45 8.1 75.6 1011.7 1.1 S 1.8 SSW 0.0 168.2
13:50 8.3 74.7 1011.7 1.3 S 2.1 SSW 0.0 178.1
13:55 8.5 73.8 1011.6 0.7 S 1.8 S 0.0 178.8
14:00 8.8 72.8 1011.5 0.2 SSE 1.4 SE 0.0 179.9
14:05 9.0 71.9 1011.4 1.1 SSE 1.8 SSW 0.0 157.2
14:10 8.9 72.1 1011.5 1.0 SSE 1.8 S 0.0 118.8
14:15 8.7 72.9 1011.3 0.7 SE 1.8 ESE 0.0 127.0
14:20 8.7 73.4 1011.4 0.8 ESE 1.8 SSE 0.0 173.8
14:25 8.6 73.9 1011.3 1.0 ESE 2.1 ESE 0.0 270.4
14:30 8.7 73.4 1011.3 0.8 ESE 2.1 ESE 0.0 212.5
14:35 8.7 73.5 1011.3 0.7 E 1.8 SE 0.0 227.3
14:40 9.1 72.2 1011.2 1.1 SSW 2.1 SSE 0.0 220.2
14:45 9.4 71.0 1011.2 0.5 S 1.8 SW 0.0 206.4
14:50 9.1 71.1 1011.3 0.9 SE 1.8 E 0.0 177.0
14:55 9.2 71.3 1011.3 0.9 S 1.8 SE 0.0 142.8
15:00 9.3 71.0 1011.4 0.2 WSW 1.1 SW 0.0 165.9
15:05 9.3 70.3 1011.4 0.7 SSW 1.8 SSW 0.0 164.4
15:10 9.3 70.5 1011.4 0.4 S 1.4 SSW 0.0 146.6
15:15 9.4 70.3 1011.4 0.7 WSW 1.4 WNW 0.0 128.0
15:20 8.8 71.7 1011.3 1.0 W 1.4 WSW 0.0 32.4
15:25 8.0 74.9 1011.4 1.0 SW 1.4 SSW 0.0 22.2
15:30 7.4 78.2 1011.4 1.3 WSW 1.8 WSW 0.0 19.4
15:35 7.0 79.5 1011.4 0.9 SW 1.4 SSW 0.0 18.8
15:40 6.7 80.7 1011.5 1.1 WSW 1.8 WSW 0.0 18.6
15:45 6.6 81.6 1011.5 0.6 W 1.4 WSW 0.0 16.1
15:50 6.3 82.0 1011.6 1.0 SW 1.4 SSW 0.0 15.2
15:55 6.1 83.0 1011.6 0.5 SW 1.4 SW 0.0 12.2
16:00 5.9 83.4 1011.7 1.0 SW 1.4 SW 0.0 9.6
16:05 5.7 84.3 1011.7 1.2 SW 1.8 SSW 0.0 7.9
16:10 5.5 85.2 1011.6 1.4 WSW 2.1 WSW 0.0 6.5
16:15 5.6 85.2 1011.6 1.2 SW 1.8 WSW 0.0 5.2
16:20 5.5 85.0 1011.6 1.0 SW 1.8 SW 0.0 3.9
Máxima 9.5 95.2 1016.8 1.5 W 2.5 NE 0.0 447.4
Mínima -0.6 70.2 1011.2
Total 0.0